• Join FlightAware (Why Join?)
  • Login
  • US Flag 
10:51AM EDT


 

Airport Tracker/Info


-or-


 

Live Flight TrackerFlight Track Log ✈ RAX1073 ✈ 28-Jun-2013 ✈ KHKS - KPTK

Flight Track Log - Related Links

Times and Time Zones

All times are in EDT time to prevent confusion due to time zone crossing. See the RAX1073 flight status page for this flight to view local times or setup timezone preferences in your user account.

Time Position Orientation Groundspeed Altitude Reporting Facility
EDT Latitude Longitude Course Direction KTS MPH feet Rate Location/Type
10:15PM 32.5686 -89.8889 25° Northeast 293 337 8,500  Level Memphis Center
10:16PM 32.9016 -89.8864 26° Northeast  Level FlightAware Approximate
10:16PM 32.6436 -89.8442 27° Northeast 287 330 10,800  Level Memphis Center
10:17PM 32.9965 -89.8306 26° Northeast  Level FlightAware Approximate
10:17PM 32.7269 -89.7967 26° Northeast 301 346 13,300  Level Memphis Center
10:18PM 33.0914 -89.7747 26° Northeast  Level FlightAware Approximate
10:18PM 32.8083 -89.7567 22° Northeast 315 362 16,200  Level Memphis Center
10:19PM 33.1866 -89.7196 26° Northeast  Level FlightAware Approximate
10:19PM 32.8872 -89.7164 23° Northeast 315 362 19,100  Level Memphis Center
10:20PM 33.2810 -89.6627 29° Northeast  Level FlightAware Approximate
10:20PM 32.9686 -89.6714 25° Northeast 315 362 21,300  Level Memphis Center
10:21PM 33.0433 -89.6311 24° Northeast 315 362 23,400 1,800 Climbing Memphis Center
10:22PM 33.1286 -89.5808 26° Northeast 320 368 24,900 1,380 Climbing Memphis Center
10:23PM 33.2222 -89.5328 23° Northeast 337 388 26,200 1,440 Climbing Memphis Center
10:24PM 33.3181 -89.4847 23° Northeast 357 411 27,800 1,500 Climbing Memphis Center
10:25PM 33.4136 -89.4339 24° Northeast 363 418 29,200 1,320 Climbing Memphis Center
10:26PM 33.5156 -89.3806 24° Northeast 377 434 30,500 1,200 Climbing Memphis Center
10:27PM 33.6153 -89.3219 26° Northeast 382 440 31,700 1,200 Climbing Memphis Center
10:28PM 33.7150 -89.2683 24° Northeast 389 448 33,000 1,440 Climbing Memphis Center
10:29PM 33.8250 -89.2044 26° Northeast 395 455 34,600 1,200 Climbing Memphis Center
10:30PM 33.9247 -89.1406 28° Northeast 395 455 35,400 780 Climbing Memphis Center
10:31PM 34.0242 -89.0814 26° Northeast 401 461 36,200 900 Climbing Memphis Center
10:32PM 34.1319 -89.0197 25° Northeast 408 470 37,200 900 Climbing Memphis Center
10:33PM 34.2358 -88.9578 26° Northeast 413 475 38,000 780 Climbing Memphis Center
10:34PM 34.3289 -88.9008 27° Northeast 413 475 38,800 780 Climbing Memphis Center
10:35PM 34.4367 -88.8386 25° Northeast 423 487 39,600 720 Climbing Memphis Center
10:36PM 34.5444 -88.7811 24° Northeast 423 487 40,300 660 Climbing Memphis Center
10:37PM 34.6500 -88.7111 29° Northeast 418 481 41,000 300 Climbing Memphis Center
10:38PM 34.7619 -88.6508 24° Northeast 430 495 41,000  Level Memphis Center
10:39PM 34.8778 -88.5825 26° Northeast 442 509 41,000  Level Memphis Center
10:40PM 34.9936 -88.5117 27° Northeast 447 514 41,100  Climbing Memphis Center
10:41PM 35.1117 -88.4558 21° North 452 520 41,000 -60 Descending Memphis Center
10:42PM 35.2294 -88.3897 25° Northeast 452 520 41,000  Level Memphis Center
10:43PM 35.3453 -88.3233 25° Northeast 457 526 41,000  Level Memphis Center
10:44PM 35.4753 -88.2436 27° Northeast 462 532 41,000  Level Memphis Center
10:45PM 35.5931 -88.1817 23° Northeast 462 532 41,000  Level Memphis Center
10:46PM 35.6964 -88.1253 24° Northeast 452 520 41,000  Level Memphis Center
10:47PM 35.8244 -88.0503 25° Northeast 452 520 41,000  Level Memphis Center
10:48PM 35.9400 -87.9881 24° Northeast 452 520 41,000  Level Memphis Center
10:49PM 36.0597 -87.9256 23° Northeast 459 528 41,000  Level Memphis Center
10:50PM 36.1769 -87.8500 27° Northeast 459 528 41,000  Level Memphis Center
10:51PM 36.2922 -87.7769 27° Northeast 459 528 41,000  Level Memphis Center
10:52PM 36.4097 -87.7114 24° Northeast 460 529 41,000  Level Memphis Center
10:53PM 36.5250 -87.6481 24° Northeast 454 522 41,000  Level Memphis Center
10:54PM 36.6258 -87.5828 27° Northeast 454 522 41,000  Level Memphis Center
10:56PM 36.8511 -87.4308 28° Northeast 459 528 41,000  Level Indianapolis Center
10:57PM 36.9681 -87.3622 25° Northeast 457 526 41,000  Level Indianapolis Center
10:58PM 37.0825 -87.2872 28° Northeast 458 527 41,000  Level Indianapolis Center
10:59PM 37.1972 -87.2156 26° Northeast 456 525 41,000  Level Indianapolis Center
11:00PM 37.3133 -87.1456 26° Northeast 456 525 41,000  Level Indianapolis Center
11:01PM 37.4275 -87.0697 28° Northeast 458 527 41,000  Level Indianapolis Center
11:02PM 37.5336 -87.0044 26° Northeast 463 533 41,000  Level Indianapolis Center
11:03PM 37.6756 -86.9289 23° Northeast 462 532 41,000  Level Indianapolis Center
11:04PM 37.7933 -86.8658 23° Northeast 460 529 41,000  Level Indianapolis Center
11:05PM 37.9092 -86.7903 27° Northeast 466 536 41,000  Level Indianapolis Center
11:06PM 38.0247 -86.7178 26° Northeast 466 536 41,000  Level Indianapolis Center
11:08PM 38.1419 -86.6508 24° Northeast 465 535 41,000  Level Indianapolis Center
11:09PM 38.2567 -86.5728 28° Northeast 469 540 41,000  Level Indianapolis Center
11:10PM 38.3731 -86.4950 28° Northeast 473 544 41,000  Level Indianapolis Center
11:11PM 38.4900 -86.4211 26° Northeast 470 541 41,000  Level Indianapolis Center
11:12PM 38.6267 -86.3297 28° Northeast 463 533 41,000  Level Indianapolis Center
11:13PM 38.7389 -86.2492 29° Northeast 461 531 41,000  Level Indianapolis Center
11:14PM 38.8525 -86.1806 25° Northeast 453 521 41,000  Level Indianapolis Center
11:15PM 38.9561 -86.1222 24° Northeast 449 517 41,000  Level Indianapolis Center
11:16PM 39.0664 -86.0486 27° Northeast 448 516 41,000  Level Indianapolis Center
11:17PM 39.1981 -85.9708 25° Northeast 436 502 41,000  Level Indianapolis Center
11:18PM 39.3094 -85.9086 23° Northeast 438 504 41,000  Level Indianapolis Center
11:19PM 39.4164 -85.8317 29° Northeast 443 510 41,000  Level Indianapolis Center
11:20PM 39.5219 -85.7514 30° Northeast 444 511 41,000  Level Indianapolis Center
11:21PM 39.6300 -85.6822 26° Northeast 438 504 41,000  Level Indianapolis Center
11:22PM 39.7381 -85.6147 26° Northeast 436 502 41,000  Level Indianapolis Center
11:23PM 39.8431 -85.5322 31° Northeast 443 510 41,000  Level Indianapolis Center
11:24PM 39.9692 -85.4283 32° Northeast 449 517 41,000  Level Indianapolis Center
11:25PM 40.0761 -85.3500 29° Northeast 444 511 41,000 -180 Level Indianapolis Center
11:26PM 40.1856 -85.2764 27° Northeast 443 510 40,700 -540 Descending Indianapolis Center
11:27PM 40.2928 -85.1964 30° Northeast 445 512 40,000 -600 Descending Indianapolis Center
11:28PM 40.4003 -85.1094 32° Northeast 454 522 39,500 -600 Descending Indianapolis Center
11:29PM 40.5089 -85.0319 28° Northeast 446 513 38,900 -660 Descending Indianapolis Center
11:30PM 40.6225 -84.9581 26° Northeast 453 521 38,200 -720 Descending Indianapolis Center
11:31PM 40.6950 -84.9039 30° Northeast 454 522 37,700 -600 Descending Chicago Center
11:32PM 40.8025 -84.8211 30° Northeast 451 519 37,200 -660 Descending Chicago Center
11:33PM 40.9125 -84.7453 28° Northeast 450 518 36,400 -900 Descending Chicago Center
11:34PM 41.0417 -84.6475 30° Northeast 447 514 35,400 -840 Descending Chicago Center
11:35PM 41.1378 -84.5417 40° Northeast 450 518 34,800 -840 Descending Chicago Center
11:36PM 41.2381 -84.4461 36° Northeast 452 520 33,800 -900 Descending Chicago Center
11:37PM 41.3458 -84.3642 30° Northeast 449 517 33,000 -1,020 Descending Chicago Center
11:38PM 41.4556 -84.2900 27° Northeast 447 514 31,800 -4,080 Descending Chicago Center
11:39PM 41.5683 -84.2725 North 428 493 24,800 -4,800 Descending Chicago Center
11:39PM 41.6497 -84.2933 349° North 419 482 24,000 -10,980 Descending Cleveland Center
11:40PM 41.7078 -84.3050 351° North 383 441 12,400 -8,160 Descending Cleveland Center
11:41PM 41.7947 -84.2572 22° Northeast 343 395 11,700 -660 Descending Cleveland Center
11:42PM 41.8964 -84.1428 40° Northeast 347 399 11,000 -300 Descending Cleveland Center
11:43PM 41.9756 -84.0775 32° Northeast 321 369 11,000  Level Cleveland Center
11:44PM 42.0589 -84.0122 30° Northeast 323 372 11,000  Level Cleveland Center
11:45PM 42.1106 -83.9561 39° Northeast 341 392 11,000 -480 Level Cleveland Center
11:46PM 42.1900 -83.8733 38° Northeast 341 392 10,200 -1,560 Descending Cleveland Center
11:47PM 42.2669 -83.8100 31° Northeast 314 361 7,900 -2,640 Descending Cleveland Center
11:48PM 42.3589 -83.7247 34° Northeast 304 350 4,100 -2,160 Descending Cleveland Center
11:49PM 42.4017 -83.6875 33° Northeast 274 315 3,600 -720 Descending Cleveland Center
11:51PM 42.4842 -83.5667 North  Level FlightAware Approximate
11:58PM 42.6500 -83.4167 36° Northeast  Level FlightAware Approximate